createdAt,value
2019-05-03T00:02:28.967Z,63.56
2019-05-03T00:04:37.849Z,63.76
2019-05-03T00:06:45.260Z,63.27
2019-05-03T00:08:52.611Z,63.64
2019-05-03T00:11:00.043Z,63.71
2019-05-03T00:13:08.126Z,63.16
2019-05-03T00:15:33.220Z,63.49
2019-05-03T00:17:41.990Z,63.21
2019-05-03T00:19:49.833Z,63.47
2019-05-03T00:21:57.070Z,62.98
2019-05-03T00:24:04.534Z,63.09
2019-05-03T00:26:12.136Z,63.94
2019-05-03T00:28:21.567Z,63.69
2019-05-03T00:30:28.579Z,64.38
2019-05-03T00:32:35.944Z,64.11
2019-05-03T00:34:46.664Z,64.34
2019-05-03T00:36:57.575Z,64.89
2019-05-03T00:39:24.689Z,64.77
2019-05-03T00:41:32.117Z,64.52
2019-05-03T00:43:42.243Z,64.19
2019-05-03T00:45:49.302Z,64.12
2019-05-03T00:47:56.601Z,64.93
2019-05-03T00:50:04.105Z,63.87
2019-05-03T00:52:11.669Z,64.65
2019-05-03T00:54:19.279Z,65.73
2019-05-03T00:56:26.526Z,63.84
2019-05-03T00:58:35.478Z,65.19
2019-05-03T01:00:43.466Z,65.23
2019-05-03T01:02:51.681Z,66.27
2019-05-03T01:04:59.435Z,65.83
2019-05-03T01:07:06.779Z,66.76
2019-05-03T01:12:37.668Z,65.97
2019-05-03T01:14:46.588Z,66.26
2019-05-03T01:16:53.912Z,65.83
2019-05-03T01:19:02.627Z,65.78
2019-05-03T01:21:11.706Z,65.95
2019-05-03T01:23:19.245Z,65.54
2019-05-03T01:25:32.141Z,65.72
2019-05-03T01:27:35.410Z,66.06
2019-05-03T01:29:43.548Z,65.07
2019-05-03T01:31:52.980Z,65.70
2019-05-03T01:34:02.231Z,64.76
2019-05-03T01:36:09.231Z,65.54
2019-05-03T01:38:19.287Z,65.52
2019-05-03T01:40:25.520Z,64.83
2019-05-03T01:42:32.807Z,65.39
2019-05-03T01:44:40.095Z,65.08
2019-05-03T01:46:48.761Z,65.13
2019-05-03T01:49:05.321Z,64.17
2019-05-03T01:51:30.122Z,64.17
2019-05-03T01:53:38.215Z,64.00
2019-05-03T01:55:54.647Z,63.81
2019-05-03T01:58:02.562Z,64.05
2019-05-03T02:00:15.743Z,63.75
2019-05-03T02:02:38.653Z,63.77
2019-05-03T02:04:50.607Z,62.66
2019-05-03T02:06:57.825Z,63.52
2019-05-03T02:09:07.049Z,63.19
2019-05-03T02:11:14.432Z,63.51
2019-05-03T02:13:22.950Z,63.38
2019-05-03T02:15:30.402Z,63.18
2019-05-03T02:17:37.731Z,62.98
2019-05-03T02:19:45.064Z,63.04
2019-05-03T02:21:52.455Z,62.69
2019-05-03T02:23:59.771Z,62.61
2019-05-03T02:26:06.978Z,63.00
2019-05-03T02:28:14.217Z,62.53
2019-05-03T02:30:24.932Z,62.31
2019-05-03T02:32:33.219Z,62.84
2019-05-03T02:34:43.567Z,62.55
2019-05-03T02:36:49.367Z,62.72
2019-05-03T02:38:57.050Z,62.29
2019-05-03T02:41:04.687Z,62.62
2019-05-03T02:43:25.635Z,62.83
2019-05-03T02:45:35.095Z,63.21
2019-05-03T02:47:51.879Z,62.95
2019-05-03T02:50:11.965Z,62.66
2019-05-03T02:52:36.686Z,62.65
2019-05-03T02:54:46.262Z,62.86
2019-05-03T02:56:52.363Z,63.08
2019-05-03T02:58:59.704Z,62.75
2019-05-03T03:01:08.048Z,63.34
2019-05-03T03:03:16.594Z,63.17
2019-05-03T03:05:25.315Z,63.03
2019-05-03T03:07:37.509Z,63.09
2019-05-03T03:09:45.340Z,62.89
2019-05-03T03:11:56.367Z,63.19
2019-05-03T03:14:07.251Z,63.13
2019-05-03T03:16:20.559Z,63.06
2019-05-03T03:18:26.691Z,63.01
2019-05-03T03:20:38.279Z,63.08
2019-05-03T03:22:47.087Z,63.15
2019-05-03T03:25:00.094Z,63.64
2019-05-03T03:27:11.477Z,63.53
2019-05-03T03:29:25.305Z,63.32
2019-05-03T03:32:08.399Z,63.25
2019-05-03T03:34:18.066Z,63.25
2019-05-03T03:36:46.198Z,63.47
2019-05-03T03:38:35.144Z,63.54
2019-05-03T03:40:45.319Z,63.73
2019-05-03T03:42:55.927Z,63.63
2019-05-03T03:45:06.005Z,62.99
2019-05-03T03:47:17.117Z,63.54
2019-05-03T03:49:26.372Z,64.17
2019-05-03T03:51:36.918Z,63.63
2019-05-03T03:53:47.935Z,64.00
2019-05-03T03:55:57.593Z,64.15
2019-05-03T03:58:06.683Z,64.41
2019-05-03T04:00:16.313Z,64.84
2019-05-03T04:02:26.195Z,64.18
2019-05-03T04:04:35.607Z,64.58
2019-05-03T04:06:42.532Z,64.85
2019-05-03T04:08:49.932Z,64.85
2019-05-03T04:10:57.137Z,65.09
2019-05-03T04:13:07.104Z,65.02
2019-05-03T04:15:40.629Z,65.42
2019-05-03T04:18:07.576Z,65.98
2019-05-03T04:20:16.805Z,66.27
2019-05-03T04:22:25.391Z,67.17
2019-05-03T04:24:35.162Z,66.77
2019-05-03T04:26:45.239Z,66.84
2019-05-03T04:28:55.875Z,67.96
2019-05-03T04:31:02.181Z,67.36
2019-05-03T04:33:09.558Z,67.25
2019-05-03T04:35:16.875Z,68.52
2019-05-03T04:37:26.636Z,68.61
2019-05-03T04:39:35.613Z,67.57
2019-05-03T04:41:45.201Z,68.90
2019-05-03T04:43:51.215Z,68.91
2019-05-03T04:46:08.775Z,69.11
2019-05-03T04:48:16.309Z,70.69
2019-05-03T04:50:25.547Z,72.27
2019-05-03T04:52:32.695Z,71.95
2019-05-03T04:54:59.575Z,73.22
2019-05-03T04:57:07.031Z,72.61
2019-05-03T04:59:16.003Z,71.88
2019-05-03T05:01:25.940Z,72.08
2019-05-03T05:03:32.353Z,72.16
2019-05-03T05:05:39.578Z,70.40
2019-05-03T05:07:46.902Z,71.99
2019-05-03T05:09:56.192Z,71.12
2019-05-03T05:12:05.590Z,70.43
2019-05-03T05:14:12.206Z,70.45
2019-05-03T05:16:19.499Z,70.06
2019-05-03T05:18:41.014Z,69.19
2019-05-03T05:21:04.570Z,70.58
2019-05-03T05:23:11.994Z,69.90
2019-05-03T05:25:21.650Z,69.31
2019-05-03T05:27:47.939Z,69.90
2019-05-03T05:29:47.087Z,68.63
2019-05-03T05:31:54.848Z,69.50
2019-05-03T05:34:02.509Z,69.74
2019-05-03T05:36:09.757Z,70.00
2019-05-03T05:38:17.002Z,68.76
2019-05-03T05:40:25.012Z,69.67
2019-05-03T05:42:32.177Z,69.45
2019-05-03T05:44:39.481Z,69.10
2019-05-03T05:46:58.634Z,69.69
2019-05-03T05:49:08.127Z,69.58
2019-05-03T05:51:16.194Z,68.69
2019-05-03T05:53:25.393Z,68.70
2019-05-03T05:56:09.713Z,70.50
2019-05-03T05:58:25.630Z,69.10
2019-05-03T06:00:40.360Z,67.74
2019-05-03T06:02:47.579Z,67.40
2019-05-03T06:04:54.939Z,66.85
2019-05-03T06:07:19.551Z,66.42
2019-05-03T06:09:54.995Z,65.92
2019-05-03T06:12:09.043Z,64.40
2019-05-03T06:14:24.504Z,65.51
2019-05-03T06:16:45.208Z,64.28
2019-05-03T06:19:10.183Z,65.55
2019-05-03T06:21:25.563Z,64.37
2019-05-03T06:23:41.037Z,64.22
2019-05-03T06:25:48.387Z,64.61
2019-05-03T06:27:55.881Z,64.12
2019-05-03T06:30:24.846Z,64.01
2019-05-03T06:32:35.438Z,63.60
2019-05-03T06:34:42.750Z,63.99
2019-05-03T06:36:51.725Z,62.73
2019-05-03T06:38:59.127Z,63.51
2019-05-03T06:41:06.993Z,62.64
2019-05-03T06:43:15.768Z,62.00
2019-05-03T06:45:25.098Z,61.31
2019-05-03T06:47:34.726Z,60.51
2019-05-03T06:49:44.954Z,61.72
2019-05-03T06:51:51.153Z,61.29
2019-05-03T06:53:58.536Z,60.37
2019-05-03T06:56:05.984Z,61.17
2019-05-03T06:58:15.187Z,60.85
2019-05-03T07:00:45.133Z,61.67
2019-05-03T07:02:58.568Z,62.01
2019-05-03T07:05:08.344Z,61.60
2019-05-03T07:07:35.427Z,61.29
2019-05-03T07:10:01.903Z,61.36
2019-05-03T07:12:09.445Z,61.83
2019-05-03T07:14:17.465Z,61.81
2019-05-03T07:16:25.465Z,61.59
2019-05-03T07:18:35.018Z,61.65
2019-05-03T07:20:49.691Z,62.36
2019-05-03T07:22:57.372Z,61.80
2019-05-03T07:25:05.068Z,61.58
2019-05-03T07:27:12.467Z,60.89
2019-05-03T07:29:20.071Z,61.06
2019-05-03T07:31:27.578Z,61.51
2019-05-03T07:33:36.086Z,62.19
2019-05-03T07:35:44.501Z,61.69
2019-05-03T07:37:52.195Z,61.28
2019-05-03T07:40:17.221Z,61.41
2019-05-03T07:42:25.629Z,61.58
2019-05-03T07:44:34.793Z,61.59
2019-05-03T07:46:44.967Z,61.61
2019-05-03T07:48:51.820Z,60.83
2019-05-03T07:50:59.283Z,61.02
2019-05-03T07:53:06.803Z,60.57
2019-05-03T07:55:14.999Z,60.83
2019-05-03T07:57:45.251Z,60.24
2019-05-03T07:59:52.764Z,60.62
2019-05-03T08:02:00.186Z,59.98
2019-05-03T08:04:08.397Z,59.89
2019-05-03T08:06:15.786Z,59.91
2019-05-03T08:08:24.965Z,59.91
2019-05-03T08:10:34.393Z,60.10
2019-05-03T08:12:41.476Z,60.35
2019-05-03T08:14:49.888Z,60.49
2019-05-03T08:16:57.376Z,59.95
2019-05-03T08:19:05.195Z,60.32
2019-05-03T08:21:14.787Z,60.01
2019-05-03T08:23:27.502Z,61.10
2019-05-03T08:25:31.196Z,60.13
2019-05-03T08:27:38.679Z,60.03
2019-05-03T08:29:46.132Z,59.91
2019-05-03T08:32:18.522Z,60.81
2019-05-03T08:34:45.309Z,60.15
2019-05-03T08:36:58.386Z,60.57
2019-05-03T08:39:06.632Z,61.22
2019-05-03T08:41:17.060Z,61.11
2019-05-03T08:43:25.571Z,60.87
2019-05-03T08:45:34.681Z,60.65
2019-05-03T08:47:42.504Z,61.61
2019-05-03T08:49:50.240Z,63.20
2019-05-03T08:51:57.917Z,63.29
2019-05-03T08:54:07.443Z,63.59
2019-05-03T08:56:15.687Z,62.86
2019-05-03T08:58:25.423Z,63.74
2019-05-03T09:00:35.306Z,62.95
2019-05-03T09:02:44.743Z,62.22
2019-05-03T09:04:54.540Z,62.80
2019-05-03T09:07:01.571Z,62.01
2019-05-03T09:09:17.031Z,62.51
2019-05-03T09:11:31.883Z,61.68
2019-05-03T09:13:52.608Z,60.81
2019-05-03T09:16:00.077Z,61.13
2019-05-03T09:18:07.657Z,61.65
2019-05-03T09:20:16.681Z,61.01
2019-05-03T09:22:25.561Z,59.36
2019-05-03T09:24:35.115Z,58.55
2019-05-03T09:26:44.779Z,59.18
2019-05-03T09:28:52.362Z,57.81
2019-05-03T09:30:59.893Z,57.48
2019-05-03T09:33:09.202Z,57.30
2019-05-03T09:35:29.738Z,56.70
2019-05-03T09:37:26.473Z,57.54
2019-05-03T09:39:35.480Z,56.79
2019-05-03T09:41:45.069Z,56.40
2019-05-03T09:43:52.827Z,56.89
2019-05-03T09:46:00.681Z,56.43
2019-05-03T09:48:08.596Z,56.34
2019-05-03T09:50:16.736Z,56.82
2019-05-03T09:52:25.004Z,56.20
2019-05-03T09:54:39.241Z,55.50
2019-05-03T09:57:02.041Z,55.73
2019-05-03T09:59:09.871Z,53.69
2019-05-03T10:01:17.403Z,53.55
2019-05-03T10:03:24.878Z,53.92
2019-05-03T10:05:34.925Z,54.36
2019-05-03T10:07:41.666Z,53.11
2019-05-03T10:09:49.370Z,51.44
2019-05-03T10:11:57.117Z,51.78
2019-05-03T10:14:04.898Z,51.05
2019-05-03T10:16:12.602Z,50.35
2019-05-03T10:18:20.122Z,51.69
2019-05-03T10:20:27.974Z,50.45
2019-05-03T10:22:35.555Z,51.31
2019-05-03T10:24:45.093Z,51.04
2019-05-03T10:26:52.205Z,51.65
2019-05-03T10:28:59.626Z,49.78
2019-05-03T10:31:07.882Z,48.61
2019-05-03T10:33:20.296Z,48.42
2019-05-03T10:35:27.787Z,47.65
2019-05-03T10:37:35.963Z,48.40
2019-05-03T10:39:45.530Z,46.58
2019-05-03T10:41:54.929Z,46.07
2019-05-03T10:44:02.439Z,45.64
2019-05-03T10:46:09.761Z,44.98
2019-05-03T10:48:17.891Z,44.21
2019-05-03T10:50:25.452Z,44.15
2019-05-03T10:52:40.534Z,43.71
2019-05-03T10:54:47.963Z,44.01
2019-05-03T10:57:01.191Z,44.36
2019-05-03T10:59:09.796Z,43.58
2019-05-03T11:01:19.800Z,44.33
2019-05-03T11:03:27.251Z,41.53
2019-05-03T11:05:34.922Z,42.18
2019-05-03T11:07:42.337Z,42.21
2019-05-03T11:09:52.500Z,43.65
2019-05-03T11:12:01.130Z,42.49
2019-05-03T11:14:08.812Z,41.55
2019-05-03T11:16:16.399Z,39.79
2019-05-03T11:18:25.268Z,38.83
2019-05-03T11:20:37.933Z,39.88
2019-05-03T11:22:45.561Z,40.13
2019-05-03T11:24:54.659Z,39.08
2019-05-03T11:27:04.502Z,38.06
2019-05-03T11:29:12.013Z,36.90
2019-05-03T11:31:38.046Z,36.82
2019-05-03T11:33:47.049Z,37.43
2019-05-03T11:36:16.624Z,37.49
2019-05-03T11:38:26.461Z,36.56
2019-05-03T11:40:34.603Z,37.93
2019-05-03T11:42:42.288Z,36.29
2019-05-03T11:44:49.639Z,36.87
2019-05-03T11:46:57.196Z,36.55
2019-05-03T11:49:05.633Z,36.35
2019-05-03T11:51:15.087Z,36.94
2019-05-03T11:53:22.377Z,35.65
2019-05-03T11:55:29.801Z,34.94
2019-05-03T11:57:56.716Z,35.57
2019-05-03T12:00:05.393Z,37.16
2019-05-03T12:02:24.804Z,35.99
2019-05-03T12:04:32.281Z,36.15
2019-05-03T12:06:40.707Z,34.88
2019-05-03T12:08:48.093Z,34.97
2019-05-03T12:11:01.109Z,34.37
2019-05-03T12:13:15.632Z,33.94
2019-05-03T12:15:22.507Z,34.72
2019-05-03T12:17:34.597Z,34.46
2019-05-03T12:19:42.989Z,33.95
2019-05-03T12:21:51.998Z,34.58
2019-05-03T12:24:00.579Z,34.94
2019-05-03T12:26:12.938Z,36.34
2019-05-03T12:28:17.987Z,35.04
2019-05-03T12:30:27.772Z,34.84
2019-05-03T12:32:36.048Z,33.14
2019-05-03T12:34:44.477Z,32.98
2019-05-03T12:36:51.889Z,32.38
2019-05-03T12:38:59.457Z,33.05
2019-05-03T12:41:07.094Z,33.09
2019-05-03T12:43:15.033Z,33.80
2019-05-03T12:45:24.589Z,34.84
2019-05-03T12:47:32.055Z,34.96
2019-05-03T12:49:39.505Z,34.84
2019-05-03T12:51:46.990Z,33.61
2019-05-03T12:53:55.223Z,33.61
2019-05-03T12:56:09.746Z,31.25
2019-05-03T12:58:12.514Z,31.51
2019-05-03T13:00:47.927Z,32.62
2019-05-03T13:02:56.840Z,32.28
2019-05-03T13:05:04.880Z,32.81
2019-05-03T13:07:30.299Z,32.23
2019-05-03T13:09:37.740Z,31.63
2019-05-03T13:11:55.370Z,31.87
2019-05-03T13:13:55.834Z,29.19
2019-05-03T13:16:04.625Z,28.61
2019-05-03T13:18:15.560Z,29.16
2019-05-03T13:20:25.064Z,30.13
2019-05-03T13:22:35.048Z,30.79
2019-05-03T13:24:44.694Z,29.07
2019-05-03T13:26:52.021Z,31.01
2019-05-03T13:28:59.923Z,31.42
2019-05-03T13:31:07.808Z,29.81
2019-05-03T13:33:15.330Z,29.79
2019-05-03T13:35:22.960Z,31.96
2019-05-03T13:37:30.463Z,32.00
2019-05-03T13:39:37.947Z,33.47
2019-05-03T13:41:45.725Z,33.92
2019-05-03T13:43:54.892Z,34.06
2019-05-03T13:46:02.483Z,34.25
2019-05-03T13:48:09.874Z,33.58
2019-05-03T13:50:17.379Z,33.79
2019-05-03T13:52:25.091Z,33.66
2019-05-03T13:54:32.576Z,33.37
2019-05-03T13:56:39.884Z,32.41
2019-05-03T13:58:48.194Z,32.83
2019-05-03T14:00:55.631Z,32.25
2019-05-03T14:03:04.576Z,32.47
2019-05-03T14:05:12.468Z,32.88
2019-05-03T14:07:19.882Z,31.51
2019-05-03T14:09:27.353Z,30.12
2019-05-03T14:11:35.432Z,31.55
2019-05-03T14:13:44.561Z,32.22
2019-05-03T14:15:52.025Z,33.00
2019-05-03T14:17:59.548Z,32.19
2019-05-03T14:20:23.106Z,33.86
2019-05-03T14:22:32.483Z,32.86
2019-05-03T14:24:39.857Z,33.36
2019-05-03T14:26:47.329Z,33.35
2019-05-03T14:28:55.002Z,33.06
2019-05-03T14:31:02.426Z,32.40
2019-05-03T14:33:09.850Z,34.15
2019-05-03T14:35:17.399Z,33.59
2019-05-03T14:37:25.147Z,33.53
2019-05-03T14:39:32.725Z,33.56
2019-05-03T14:41:40.288Z,33.83
2019-05-03T14:43:47.815Z,33.07
2019-05-03T14:45:55.258Z,34.30
2019-05-03T14:48:02.777Z,34.77
2019-05-03T14:50:10.587Z,34.79
2019-05-03T14:52:18.077Z,35.45
2019-05-03T14:54:27.092Z,34.80
2019-05-03T14:56:48.924Z,34.44
2019-05-03T14:59:15.470Z,33.28
2019-05-03T15:01:34.611Z,32.69
2019-05-03T15:03:41.605Z,32.40
2019-05-03T15:05:49.061Z,32.29
2019-05-03T15:07:56.524Z,31.28
2019-05-03T15:10:05.619Z,31.22
2019-05-03T15:12:13.087Z,30.70
2019-05-03T15:14:20.503Z,31.24
2019-05-03T15:16:28.241Z,31.39
2019-05-03T15:18:35.696Z,32.21
2019-05-03T15:20:45.188Z,32.76
2019-05-03T15:22:52.345Z,31.90
2019-05-03T15:24:59.905Z,31.91
2019-05-03T15:27:07.705Z,32.57
2019-05-03T15:29:15.638Z,32.61
2019-05-03T15:31:24.576Z,32.91
2019-05-03T15:33:32.225Z,33.61
2019-05-03T15:35:39.814Z,32.80
2019-05-03T15:37:47.262Z,33.01
2019-05-03T15:39:54.946Z,32.50
2019-05-03T15:42:02.378Z,33.44
2019-05-03T15:44:37.650Z,32.81
2019-05-03T15:46:56.571Z,31.80
2019-05-03T15:49:04.608Z,31.26
2019-05-03T15:51:12.272Z,31.84
2019-05-03T15:53:19.812Z,31.83
2019-05-03T15:55:27.341Z,33.65
2019-05-03T15:57:35.698Z,33.43
2019-05-03T15:59:44.507Z,31.87
2019-05-03T16:01:52.042Z,32.26
2019-05-03T16:03:59.649Z,33.17
2019-05-03T16:06:07.242Z,34.44
2019-05-03T16:08:15.405Z,33.99
2019-05-03T16:10:24.754Z,32.94
2019-05-03T16:12:32.057Z,33.06
2019-05-03T16:14:39.550Z,33.40
2019-05-03T16:16:46.998Z,34.37
2019-05-03T16:18:54.508Z,32.83
2019-05-03T16:21:01.922Z,33.53
2019-05-03T16:23:09.295Z,33.17
2019-05-03T16:25:17.136Z,32.90
2019-05-03T16:27:49.677Z,33.37
2019-05-03T16:29:57.295Z,33.85
2019-05-03T16:32:05.282Z,32.96
2019-05-03T16:34:12.876Z,33.05
2019-05-03T16:36:21.032Z,32.72
2019-05-03T16:38:28.296Z,33.39
2019-05-03T16:40:36.106Z,33.79
2019-05-03T16:42:44.394Z,35.09
2019-05-03T16:44:51.947Z,33.92
2019-05-03T16:46:59.790Z,34.10
2019-05-03T16:49:08.390Z,33.86
2019-05-03T16:51:17.314Z,34.42
2019-05-03T16:53:25.528Z,35.19
2019-05-03T16:55:35.009Z,35.41
2019-05-03T16:57:44.247Z,35.33
2019-05-03T16:59:51.425Z,34.43
2019-05-03T17:01:58.913Z,34.17
2019-05-03T17:04:30.573Z,34.42
2019-05-03T17:06:48.474Z,33.87
2019-05-03T17:09:14.464Z,34.00
2019-05-03T17:11:21.977Z,34.37
2019-05-03T17:13:29.930Z,35.29
2019-05-03T17:15:37.441Z,34.60
2019-05-03T17:17:45.200Z,36.47
2019-05-03T17:19:54.959Z,35.81
2019-05-03T17:22:01.843Z,35.50
2019-05-03T17:24:09.399Z,35.93
2019-05-03T17:26:17.491Z,36.58
2019-05-03T17:28:25.276Z,36.76
2019-05-03T17:30:35.151Z,36.82
2019-05-03T17:32:41.977Z,37.53
2019-05-03T17:34:49.520Z,38.00
2019-05-03T17:36:56.961Z,37.14
2019-05-03T17:39:08.660Z,38.25
2019-05-03T17:41:36.282Z,37.44
2019-05-03T17:43:50.571Z,37.79
2019-05-03T17:45:59.157Z,38.52
2019-05-03T17:48:07.136Z,38.97
2019-05-03T17:50:14.874Z,39.42
2019-05-03T17:52:41.000Z,38.33
2019-05-03T17:55:05.754Z,38.82
2019-05-03T17:57:21.075Z,38.43
2019-05-03T17:59:39.272Z,39.42
2019-05-03T18:02:06.678Z,38.44
2019-05-03T18:04:20.455Z,39.50
2019-05-03T18:06:30.769Z,39.79
2019-05-03T18:08:47.025Z,41.15
2019-05-03T18:11:00.985Z,40.75
2019-05-03T18:13:08.380Z,41.25
2019-05-03T18:15:16.123Z,39.65
2019-05-03T18:17:24.749Z,39.75
2019-05-03T18:19:34.336Z,38.60
2019-05-03T18:21:42.154Z,38.57
2019-05-03T18:23:49.722Z,39.21
2019-05-03T18:25:57.261Z,39.49
2019-05-03T18:28:05.331Z,38.77
2019-05-03T18:30:13.104Z,39.17
2019-05-03T18:32:21.058Z,38.98
2019-05-03T18:34:28.561Z,39.15
2019-05-03T18:36:36.540Z,40.06
2019-05-03T18:38:44.695Z,38.66
2019-05-03T18:40:52.359Z,40.20
2019-05-03T18:43:05.622Z,39.35
2019-05-03T18:45:29.652Z,40.62
2019-05-03T18:47:38.433Z,39.79
2019-05-03T18:49:46.054Z,40.77
2019-05-03T18:51:55.336Z,40.73
2019-05-03T18:54:05.350Z,42.08
2019-05-03T18:56:14.631Z,42.50
2019-05-03T18:58:22.100Z,41.88
2019-05-03T19:00:31.381Z,42.81
2019-05-03T19:02:39.737Z,42.54
2019-05-03T19:04:54.446Z,41.90
2019-05-03T19:07:04.640Z,42.38
2019-05-03T19:09:20.553Z,43.29
2019-05-03T19:11:37.635Z,43.75
2019-05-03T19:13:55.318Z,43.91
2019-05-03T19:16:09.776Z,43.87
2019-05-03T19:18:28.768Z,45.16
2019-05-03T19:20:36.627Z,45.97
2019-05-03T19:22:44.084Z,46.48
2019-05-03T19:24:51.638Z,46.60
2019-05-03T19:26:59.655Z,47.17
2019-05-03T19:29:07.281Z,47.15
2019-05-03T19:31:15.578Z,47.22
2019-05-03T19:33:23.135Z,46.58
2019-05-03T19:35:30.612Z,47.17
2019-05-03T19:37:38.268Z,47.94
2019-05-03T19:39:45.855Z,47.56
2019-05-03T19:41:55.147Z,46.69
2019-05-03T19:44:04.239Z,48.06
2019-05-03T19:46:11.870Z,47.37
2019-05-03T19:48:19.589Z,48.08
2019-05-03T19:50:27.321Z,48.60
2019-05-03T19:52:38.782Z,48.61
2019-05-03T19:54:46.212Z,49.13
2019-05-03T19:56:55.661Z,49.23
2019-05-03T19:59:06.584Z,49.67
2019-05-03T20:01:42.080Z,50.03
2019-05-03T20:03:56.123Z,50.08
2019-05-03T20:06:11.080Z,50.57
2019-05-03T20:08:28.534Z,50.79
2019-05-03T20:10:36.090Z,51.14
2019-05-03T20:12:43.831Z,51.77
2019-05-03T20:14:51.301Z,51.93
2019-05-03T20:16:59.087Z,52.20
2019-05-03T20:19:17.826Z,52.83
2019-05-03T20:21:15.886Z,53.05
2019-05-03T20:23:25.052Z,53.17
2019-05-03T20:25:32.672Z,52.90
2019-05-03T20:27:40.059Z,52.97
2019-05-03T20:29:47.786Z,53.36
2019-05-03T20:31:55.455Z,54.01
2019-05-03T20:34:05.217Z,54.25
2019-05-03T20:36:12.251Z,54.88
2019-05-03T20:38:19.805Z,54.62
2019-05-03T20:40:27.417Z,54.16
2019-05-03T20:42:54.343Z,54.91
2019-05-03T20:45:02.545Z,55.15
2019-05-03T20:47:14.994Z,55.63
2019-05-03T20:49:22.938Z,55.36
2019-05-03T20:51:31.425Z,55.88
2019-05-03T20:53:38.946Z,56.10
2019-05-03T20:55:46.409Z,56.18
2019-05-03T20:57:54.964Z,56.17
2019-05-03T21:00:04.487Z,56.36
2019-05-03T21:02:12.298Z,56.37
2019-05-03T21:04:20.128Z,56.43
2019-05-03T21:06:35.369Z,56.57
2019-05-03T21:08:49.663Z,56.74
2019-05-03T21:10:47.045Z,56.93
2019-05-03T21:12:54.628Z,57.36
2019-05-03T21:15:04.951Z,57.41
2019-05-03T21:17:20.241Z,57.32
2019-05-03T21:19:44.696Z,57.74
2019-05-03T21:22:05.597Z,58.32
2019-05-03T21:24:18.705Z,57.84
2019-05-03T21:26:26.232Z,58.46
2019-05-03T21:28:34.634Z,58.43
2019-05-03T21:30:42.350Z,57.97
2019-05-03T21:32:50.054Z,58.42
2019-05-03T21:34:57.572Z,58.34
2019-05-03T21:37:05.178Z,58.36
2019-05-03T21:39:14.511Z,58.52
2019-05-03T21:41:21.908Z,59.01
2019-05-03T21:43:29.544Z,58.83
2019-05-03T21:45:45.649Z,59.01
2019-05-03T21:48:16.038Z,59.50
2019-05-03T21:50:25.004Z,59.60
2019-05-03T21:52:32.631Z,59.68
2019-05-03T21:54:40.142Z,59.17
2019-05-03T21:56:47.360Z,59.48
2019-05-03T21:58:55.436Z,59.08
2019-05-03T22:01:07.234Z,58.89
2019-05-03T22:03:14.690Z,59.28
2019-05-03T22:05:22.095Z,59.59
2019-05-03T22:07:29.428Z,59.64
2019-05-03T22:09:36.798Z,58.67
2019-05-03T22:11:44.706Z,57.98
2019-05-03T22:13:56.877Z,58.50
2019-05-03T22:16:10.513Z,58.83
2019-05-03T22:18:28.487Z,59.12
2019-05-03T22:20:45.438Z,58.49
2019-05-03T22:22:58.482Z,58.48
2019-05-03T22:25:06.983Z,58.50
2019-05-03T22:27:16.839Z,58.62
2019-05-03T22:29:25.473Z,59.23
2019-05-03T22:31:34.945Z,59.65
2019-05-03T22:33:44.643Z,59.59
2019-05-03T22:36:05.514Z,59.84
2019-05-03T22:38:04.566Z,59.94
2019-05-03T22:40:12.031Z,59.99
2019-05-03T22:42:19.431Z,60.52
2019-05-03T22:44:26.759Z,60.52
2019-05-03T22:46:34.020Z,60.58
2019-05-03T22:48:41.325Z,60.42
2019-05-03T22:50:48.653Z,60.45
2019-05-03T22:52:55.854Z,59.98
2019-05-03T22:55:04.707Z,61.18
2019-05-03T22:57:12.057Z,60.99
2019-05-03T22:59:19.454Z,59.45
2019-05-03T23:01:26.863Z,58.69
2019-05-03T23:03:44.643Z,58.94
2019-05-03T23:05:51.711Z,59.86
2019-05-03T23:07:59.033Z,60.25
2019-05-03T23:10:06.974Z,60.14
2019-05-03T23:12:14.256Z,60.42
2019-05-03T23:14:21.593Z,59.13
2019-05-03T23:16:28.846Z,60.06
2019-05-03T23:18:36.272Z,60.55
2019-05-03T23:20:59.012Z,60.18
2019-05-03T23:23:06.636Z,60.59
2019-05-03T23:25:14.385Z,60.77
2019-05-03T23:27:21.872Z,61.30
2019-05-03T23:29:29.155Z,58.93
2019-05-03T23:31:36.522Z,57.47
2019-05-03T23:33:45.227Z,56.36
2019-05-03T23:35:52.713Z,55.34
2019-05-03T23:38:00.027Z,55.41
2019-05-03T23:40:07.955Z,58.21
2019-05-03T23:42:15.550Z,57.54
2019-05-03T23:44:24.467Z,57.99
2019-05-03T23:46:37.345Z,57.57
2019-05-03T23:48:44.837Z,57.06
2019-05-03T23:50:52.314Z,56.21
2019-05-03T23:52:59.719Z,57.64
2019-05-03T23:55:31.738Z,58.03
2019-05-03T23:57:39.080Z,59.15
2019-05-03T23:59:46.438Z,59.55
